Time;durP1;ratioP1;P1;durP2;ratioP2;P2;SDS_P1;SDS_P2;PMS_P1;PMS_P2;Temp;Humidity;BMP_temperature;BMP_pressure;BME280_temperature;BME280_humidity;BME280_pressure;Samples;Min_cycle;Max_cycle;Signal;HPM_P1;HPM_P2
2022/02/09 00:01:23;;;;;;;8.20;4.68;;;;;;;8.50;100.00;102542.81;5092528;28;20056;-54
2022/02/09 00:04:00;;;;;;;10.23;4.72;;;;;;;8.50;100.00;102537.59;5092582;28;20059;-55
2022/02/09 00:06:45;;;;;;;8.88;4.55;;;;;;;8.50;100.00;102538.44;5092510;28;20044;-56
2022/02/09 00:09:13;;;;;;;8.13;4.57;;;;;;;8.51;100.00;102531.41;5092387;28;20048;-55
2022/02/09 00:11:46;;;;;;;8.85;4.18;;;;;;;8.50;100.00;102527.09;5092114;28;20056;-56
2022/02/09 00:14:23;;;;;;;8.77;4.25;;;;;;;8.56;100.00;102530.41;5092131;28;20448;-56
2022/02/09 00:17:16;;;;;;;6.70;3.83;;;;;;;8.54;100.00;102531.34;5092115;28;20048;-55
2022/02/09 00:20:03;;;;;;;10.60;4.20;;;;;;;8.50;100.00;102530.56;5092123;28;20060;-54
2022/02/09 00:22:43;;;;;;;9.30;4.25;;;;;;;8.50;100.00;102525.31;5092107;28;20048;-56
2022/02/09 00:26:27;;;;;;;9.18;4.18;;;;;;;8.56;100.00;102530.41;5091955;28;20074;-56
2022/02/09 00:34:38;;;;;;;8.38;4.20;;;;;;;8.52;100.00;102530.50;5091749;28;20067;-55
2022/02/09 01:38:49;;;;;;;4.55;2.55;;;;;;;8.49;100.00;102510.47;5076579;28;20047;-55
2022/02/09 01:55:27;;;;;;;7.75;4.25;;;;;;;8.44;100.00;102505.34;5094370;28;20056;-55
2022/02/09 01:57:55;;;;;;;8.57;4.35;;;;;;;8.42;100.00;102508.91;5094472;28;20036;-55
2022/02/09 02:00:26;;;;;;;9.75;5.15;;;;;;;8.48;100.00;102508.78;5093971;28;20530;-53
2022/02/09 02:02:55;;;;;;;9.20;5.05;;;;;;;8.49;100.00;102504.38;5090350;28;20051;-46
2022/02/09 02:05:23;;;;;;;9.00;4.60;;;;;;;8.50;100.00;102506.97;5091916;28;20044;-47
2022/02/09 02:07:55;;;;;;;9.15;4.90;;;;;;;8.46;100.00;102507.97;5094187;28;20040;-45
2022/02/09 02:10:31;;;;;;;8.57;5.30;;;;;;;8.46;100.00;102495.69;5075681;28;20410;-49
2022/02/09 02:13:15;;;;;;;8.93;5.82;;;;;;;8.47;100.00;102491.31;5093762;28;20078;-46
2022/02/09 02:16:08;;;;;;;9.48;5.70;;;;;;;8.41;100.00;102487.09;5092894;28;20886;-45
2022/02/09 02:18:37;;;;;;;9.60;5.60;;;;;;;8.42;100.00;102482.69;5091022;28;20514;-45
2022/02/09 02:21:17;;;;;;;10.45;6.00;;;;;;;8.42;100.00;102487.94;5092655;28;20117;-46
2022/02/09 02:24:09;;;;;;;10.50;6.20;;;;;;;8.38;100.00;102479.31;5093763;28;20056;-44
2022/02/09 02:26:50;;;;;;;8.50;5.35;;;;;;;8.39;100.00;102480.19;5094153;28;20047;-45
2022/02/09 02:29:48;;;;;;;10.27;6.13;;;;;;;8.41;100.00;102476.59;5091005;28;20043;-55
2022/02/09 02:32:36;;;;;;;9.45;5.60;;;;;;;8.42;100.00;102482.69;5091173;28;20043;-56
2022/02/09 02:38:37;;;;;;;8.30;5.38;;;;;;;8.38;100.00;102468.81;5093796;28;20097;-50
2022/02/09 02:47:11;;;;;;;9.10;5.30;;;;;;;8.39;100.00;102467.91;5089986;28;20044;-47
2022/02/09 02:58:26;;;;;;;8.60;5.10;;;;;;;8.35;100.00;102466.28;5093386;28;20036;-50
2022/02/09 03:09:24;;;;;;;7.28;4.35;;;;;;;8.36;100.00;102459.31;5088525;28;20055;-46
2022/02/09 03:12:07;;;;;;;8.23;4.95;;;;;;;8.34;100.00;102458.47;5093048;28;20055;-44
2022/02/09 03:14:44;;;;;;;7.57;4.55;;;;;;;8.36;100.00;102461.94;5092811;28;20101;-46
2022/02/09 03:17:17;;;;;;;8.43;4.95;;;;;;;8.33;100.00;102448.88;5092687;28;20383;-47
2022/02/09 03:19:52;;;;;;;8.10;4.53;;;;;;;8.36;100.00;102446.19;5093048;28;20544;-48
2022/02/09 03:22:25;;;;;;;8.93;5.18;;;;;;;8.37;100.00;102442.66;5092297;28;20056;-46
2022/02/09 03:25:20;;;;;;;8.02;4.97;;;;;;;8.33;100.00;102438.41;5092727;28;20043;-47
2022/02/09 03:31:01;;;;;;;8.07;4.68;;;;;;;8.36;100.00;102441.81;5010518;28;20046;-48
2022/02/09 03:48:11;;;;;;;9.35;5.50;;;;;;;8.35;100.00;102432.22;5030063;28;20053;-45
2022/02/09 03:50:54;;;;;;;9.25;5.13;;;;;;;8.22;100.00;102426.50;5074308;28;20101;-52
2022/02/09 03:53:33;;;;;;;8.90;6.20;;;;;;;8.31;100.00;102427.13;5078783;28;20064;-43
2022/02/09 03:56:27;;;;;;;9.98;6.03;;;;;;;8.23;100.00;102422.09;5089434;28;20094;-45
2022/02/09 03:58:56;;;;;;;10.90;6.10;;;;;;;8.19;100.00;102421.31;5082697;28;20040;-48
2022/02/09 04:01:28;;;;;;;10.30;6.00;;;;;;;8.17;100.00;102415.28;5073427;28;20102;-47
2022/02/09 04:03:57;;;;;;;10.13;5.88;;;;;;;8.26;100.00;102417.63;5072142;28;20037;-46
2022/02/09 04:06:27;;;;;;;9.57;5.80;;;;;;;8.28;100.00;102412.34;5071897;28;20041;-56
2022/02/09 04:08:58;;;;;;;9.27;5.93;;;;;;;8.19;100.00;102421.31;5072039;28;20052;-56
2022/02/09 04:11:32;;;;;;;11.15;6.07;;;;;;;8.16;100.00;102418.81;5073695;28;20056;-55
2022/02/09 04:14:07;;;;;;;12.38;7.07;;;;;;;8.15;100.00;102417.06;5091246;28;20048;-55
2022/02/09 04:16:47;;;;;;;9.55;5.80;;;;;;;8.06;100.00;102412.97;5088950;28;20123;-56
2022/02/09 04:19:27;;;;;;;10.73;6.20;;;;;;;8.11;100.00;102415.44;5090228;28;20059;-44
2022/02/09 04:36:13;;;;;;;14.18;8.20;;;;;;;7.92;100.00;102409.91;5073859;28;20530;-55
2022/02/09 04:38:48;;;;;;;12.93;8.25;;;;;;;7.87;100.00;102406.56;5079286;28;20402;-55
2022/02/09 04:52:30;;;;;;;12.98;7.93;;;;;;;7.78;100.00;102421.66;5068095;28;20064;-55
2022/02/09 04:55:10;;;;;;;13.68;8.73;;;;;;;7.84;100.00;102409.25;5079653;28;20052;-55
2022/02/09 04:57:44;;;;;;;12.73;7.80;;;;;;;7.83;100.00;102405.78;5095184;28;20060;-56
2022/02/09 05:00:30;;;;;;;12.93;7.88;;;;;;;7.78;100.00;102410.28;5095414;28;20055;-56
2022/02/09 05:03:37;;;;;;;12.85;8.05;;;;;;;7.77;100.00;102408.56;5095515;28;20048;-54
2022/02/09 05:28:13;;;;;;;15.65;9.38;;;;;;;7.72;100.00;102393.00;5094539;28;20533;-55
2022/02/09 05:30:45;;;;;;;13.45;8.10;;;;;;;7.75;100.00;102392.06;5094999;28;20049;-56
2022/02/09 05:33:13;;;;;;;13.73;8.85;;;;;;;7.78;100.00;102390.22;5095254;28;20502;-55
2022/02/09 05:35:47;;;;;;;14.75;9.27;;;;;;;7.73;100.00;102392.09;5094644;28;20078;-56
2022/02/09 05:38:15;;;;;;;15.30;9.68;;;;;;;7.70;100.00;102391.31;5094843;28;20056;-56
2022/02/09 05:40:45;;;;;;;17.42;10.18;;;;;;;7.71;100.00;102399.13;5094912;28;20036;-56
2022/02/09 05:43:14;;;;;;;14.85;9.15;;;;;;;7.70;100.00;102394.81;5094691;28;20054;-55
2022/02/09 05:46:02;;;;;;;16.58;10.32;;;;;;;7.67;100.00;102386.19;5094662;28;20471;-56
2022/02/09 05:51:30;;;;;;;18.38;11.10;;;;;;;7.69;100.00;102392.22;5093906;28;20048;-52
2022/02/09 05:54:07;;;;;;;16.85;11.38;;;;;;;7.65;100.00;102387.97;5094357;28;20537;-55
2022/02/09 05:56:41;;;;;;;17.15;10.43;;;;;;;7.56;100.00;102389.94;5093457;28;20109;-55
2022/02/09 05:59:28;;;;;;;17.38;11.13;;;;;;;7.61;100.00;102390.69;5090588;28;20055;-54
2022/02/09 06:01:56;;;;;;;18.95;11.40;;;;;;;7.56;100.00;102389.09;5093331;28;20044;-56
2022/02/09 06:04:25;;;;;;;17.08;10.57;;;;;;;7.60;100.00;102388.97;5094444;28;20391;-56
2022/02/09 06:06:53;;;;;;;17.58;11.45;;;;;;;7.56;100.00;102391.72;5094186;28;20044;-56
2022/02/09 06:09:21;;;;;;;17.20;11.40;;;;;;;7.52;100.00;102396.16;5075789;28;20052;-56
2022/02/09 06:12:03;;;;;;;20.48;12.23;;;;;;;7.53;100.00;102395.28;5093416;28;20044;-54
2022/02/09 06:14:56;;;;;;;18.73;11.87;;;;;;;7.56;100.00;102403.03;5093522;28;20051;-56
2022/02/09 06:20:25;;;;;;;17.80;11.77;;;;;;;7.60;100.00;102385.50;5051534;28;20055;-55
2022/02/09 06:22:53;;;;;;;18.95;11.68;;;;;;;7.58;100.00;102392.53;5047446;28;20060;-54
2022/02/09 06:25:23;;;;;;;16.77;11.20;;;;;;;7.58;100.00;102390.78;5066401;28;20063;-56
2022/02/09 06:27:54;;;;;;;17.05;11.07;;;;;;;7.56;100.00;102379.47;5093896;28;20040;-54
2022/02/09 06:30:22;;;;;;;15.13;10.25;;;;;;;7.55;100.00;102380.41;5093216;28;20048;-56
2022/02/09 06:32:50;;;;;;;15.75;10.23;;;;;;;7.52;100.00;102382.22;5093607;28;20055;-56
2022/02/09 06:35:19;;;;;;;16.10;10.18;;;;;;;7.52;100.00;102377.84;5090344;28;20051;-56
2022/02/09 06:37:48;;;;;;;17.60;10.20;;;;;;;7.54;100.00;102385.66;5089642;28;20066;-56
2022/02/09 06:40:18;;;;;;;15.90;10.23;;;;;;;7.55;100.00;102380.41;5093506;28;20089;-52
2022/02/09 06:42:47;;;;;;;17.25;10.25;;;;;;;7.57;100.00;102381.19;5093528;28;20063;-55
2022/02/09 06:45:20;;;;;;;13.98;9.52;;;;;;;7.49;100.00;102369.25;5093329;28;20086;-56
2022/02/09 06:47:49;;;;;;;13.90;9.23;;;;;;;7.50;100.00;102371.81;5093341;28;20066;-56
2022/02/09 06:50:23;;;;;;;14.52;10.10;;;;;;;7.50;100.00;102376.16;5093533;28;20040;-55
2022/02/09 06:53:02;;;;;;;12.40;8.65;;;;;;;7.46;100.00;102372.78;5093318;28;20067;-55
2022/02/09 06:55:32;;;;;;;14.38;9.27;;;;;;;7.50;100.00;102387.50;5092965;28;20052;-54
2022/02/09 06:58:15;;;;;;;14.30;9.52;;;;;;;7.50;100.00;102387.50;5091942;28;20047;-55
2022/02/09 07:00:44;;;;;;;14.20;9.05;;;;;;;7.49;100.00;102390.19;5092772;28;20047;-54
2022/02/09 07:03:13;;;;;;;13.00;8.63;;;;;;;7.45;100.00;102395.47;5093048;28;20039;-54
2022/02/09 07:05:41;;;;;;;13.43;9.02;;;;;;;7.43;100.00;102393.78;5092868;28;20075;-53
2022/02/09 07:08:09;;;;;;;16.80;9.25;;;;;;;7.42;100.00;102397.34;5093042;28;20123;-55
2022/02/09 07:10:37;;;;;;;15.07;8.65;;;;;;;7.52;100.00;102400.56;5093222;28;20040;-54
2022/02/09 07:13:06;;;;;;;13.73;8.48;;;;;;;7.53;100.00;102407.53;5089666;28;20044;-56
2022/02/09 07:15:40;;;;;;;12.73;8.07;;;;;;;7.51;100.00;102411.94;5088850;28;20135;-55
2022/02/09 07:18:12;;;;;;;13.55;8.15;;;;;;;7.49;100.00;102403.28;5093010;28;20101;-54
2022/02/09 07:20:52;;;;;;;14.03;8.73;;;;;;;7.48;100.00;102396.31;5092916;28;20043;-55
2022/02/09 07:23:24;;;;;;;13.57;8.70;;;;;;;7.49;100.00;102405.88;5093050;28;20463;-54
2022/02/09 07:26:04;;;;;;;;;;;;;;;7.48;100.00;102399.78;5087913;28;20532;-56
2022/02/09 07:28:32;;;;;;;12.63;8.38;;;;;;;7.49;100.00;102401.50;5090929;28;20037;-55
2022/02/09 07:31:01;;;;;;;18.25;8.32;;;;;;;7.49;100.00;102401.50;5092450;28;20518;-54
2022/02/09 07:33:31;;;;;;;13.55;8.68;;;;;;;7.42;100.00;102399.97;5093018;28;20052;-47
2022/02/09 07:35:59;;;;;;;12.90;8.70;;;;;;;7.49;100.00;102391.03;5092587;28;20044;-47
2022/02/09 07:38:27;;;;;;;14.57;8.75;;;;;;;7.41;100.00;102393.00;5092523;28;20371;-44
2022/02/09 07:40:58;;;;;;;13.05;8.40;;;;;;;7.43;100.00;102385.94;5090446;28;20123;-46
2022/02/09 07:43:38;;;;;;;13.18;8.52;;;;;;;7.41;100.00;102387.75;5089316;28;20090;-45
2022/02/09 07:46:26;;;;;;;13.45;8.23;;;;;;;7.37;100.00;102389.59;5090978;28;20051;-49
2022/02/09 07:49:03;;;;;;;11.82;7.80;;;;;;;7.44;100.00;102392.91;5090972;28;20441;-48
2022/02/09 07:51:53;;;;;;;12.60;8.32;;;;;;;7.43;100.00;102396.41;5088524;28;20105;-47
2022/02/09 07:54:25;;;;;;;12.85;9.07;;;;;;;7.40;100.00;102396.50;5091069;28;20051;-48
2022/02/09 07:56:54;;;;;;;12.73;8.43;;;;;;;7.42;100.00;102395.56;5087761;28;20048;-50
2022/02/09 07:59:22;;;;;;;12.88;8.75;;;;;;;7.40;100.00;102399.13;5089664;28;20040;-47
2022/02/09 08:01:51;;;;;;;13.73;9.38;;;;;;;7.45;100.00;102392.84;5091199;28;20102;-49
2022/02/09 08:04:20;;;;;;;14.18;9.63;;;;;;;7.46;100.00;102396.34;5088808;28;20043;-48
2022/02/09 08:06:48;;;;;;;13.98;8.88;;;;;;;7.41;100.00;102393.84;5090398;28;20067;-49
2022/02/09 08:09:25;;;;;;;13.10;8.77;;;;;;;7.35;100.00;102393.16;5093830;28;20048;-46
2022/02/09 08:12:02;;;;;;;14.15;8.93;;;;;;;7.43;100.00;102384.22;5096283;28;20376;-49
2022/02/09 08:28:48;;;;;;;15.10;9.18;;;;;;;7.42;100.00;102394.72;5096280;28;20051;-44
2022/02/09 08:34:01;;;;;;;19.77;10.15;;;;;;;7.49;100.00;102390.19;5093022;28;20059;-46
2022/02/09 08:36:31;;;;;;;15.00;9.85;;;;;;;7.47;100.00;102397.19;5092445;28;20044;-45
2022/02/09 08:38:59;;;;;;;15.82;10.23;;;;;;;7.49;100.00;102401.50;5095729;28;20048;-49
2022/02/09 08:41:27;;;;;;;16.67;10.70;;;;;;;7.41;100.00;102398.22;5096160;28;20456;-47
2022/02/09 08:43:55;;;;;;;16.15;10.98;;;;;;;7.48;100.00;102393.69;5095890;28;20529;-47
2022/02/09 08:46:23;;;;;;;18.13;10.27;;;;;;;7.45;100.00;102384.16;5093080;28;20117;-48
2022/02/09 08:48:51;;;;;;;17.90;11.10;;;;;;;7.44;100.00;102387.66;5092167;28;20116;-46
2022/02/09 08:51:22;;;;;;;17.38;11.20;;;;;;;7.47;100.00;102384.13;5095325;28;20513;-47
2022/02/09 08:53:51;;;;;;;16.73;11.18;;;;;;;7.52;100.00;102380.47;5095427;28;20056;-44
2022/02/09 08:56:19;;;;;;;18.40;12.25;;;;;;;7.48;100.00;102394.53;5095546;28;20048;-47
2022/02/09 08:58:48;;;;;;;17.65;10.95;;;;;;;7.53;100.00;102383.97;5095434;28;20087;-45
2022/02/09 09:01:26;;;;;;;17.25;11.35;;;;;;;7.57;100.00;102382.97;5095505;28;20040;-46
2022/02/09 09:03:57;;;;;;;17.15;10.98;;;;;;;7.54;100.00;102383.91;5094353;28;20055;-46
2022/02/09 09:06:27;;;;;;;18.75;11.75;;;;;;;7.59;100.00;102382.03;5091904;28;20040;-46
2022/02/09 09:09:15;;;;;;;20.73;11.82;;;;;;;7.63;100.00;102385.41;5093017;28;20514;-49
2022/02/09 09:15:13;;;;;;;18.03;11.77;;;;;;;7.62;100.00;102388.91;5095262;28;20042;-49
2022/02/09 10:02:08;;;;;;;15.30;9.75;;;;;;;8.04;100.00;102406.91;5094194;28;20066;-46
2022/02/09 10:04:57;;;;;;;15.50;9.80;;;;;;;8.09;100.00;102405.03;5094301;28;20055;-46
2022/02/09 10:35:27;;;;;;;13.27;8.43;;;;;;;8.34;100.00;102429.66;5090095;28;20582;-45
2022/02/09 10:38:00;;;;;;;14.05;8.93;;;;;;;8.32;100.00;102416.59;5093568;28;20044;-46
2022/02/09 10:40:35;;;;;;;;;;;;;;;8.34;100.00;102427.03;5092345;28;20126;-44
2022/02/09 10:43:05;;;;;;;13.18;8.57;;;;;;;8.32;100.00;102428.81;5089397;28;19965;-45
2022/02/09 10:45:36;;;;;;;13.38;8.63;;;;;;;8.33;100.00;102425.28;5092878;28;20077;-45
2022/02/09 10:48:33;;;;;;;12.73;8.80;;;;;;;8.28;100.00;102426.28;5089562;28;20055;-44
2022/02/09 10:51:16;;;;;;;16.35;9.30;;;;;;;8.32;100.00;102423.56;5090933;28;20055;-43
2022/02/09 10:54:10;;;;;;;15.10;9.45;;;;;;;8.32;100.00;102421.81;5093246;28;20051;-44
2022/02/09 10:56:40;;;;;;;16.08;9.02;;;;;;;8.35;100.00;102415.63;5093066;28;20055;-44
2022/02/09 10:59:12;;;;;;;15.32;9.30;;;;;;;8.42;100.00;102414.53;5093287;28;20047;-49
2022/02/09 11:01:42;;;;;;;15.18;9.00;;;;;;;8.40;100.00;102406.72;5092851;28;20044;-47
2022/02/09 11:04:14;;;;;;;14.65;9.63;;;;;;;8.37;100.00;102409.44;5092501;28;20047;-47
2022/02/09 11:06:44;;;;;;;17.92;10.25;;;;;;;8.41;100.00;102413.69;5092774;28;20044;-47
2022/02/09 11:09:17;;;;;;;16.10;9.93;;;;;;;8.46;100.00;102417.03;5091096;28;20052;-48
2022/02/09 11:11:47;;;;;;;15.63;9.95;;;;;;;8.45;100.00;102411.84;5088664;28;20044;-44
2022/02/09 11:14:18;;;;;;;14.50;9.57;;;;;;;8.58;100.00;102420.19;5090948;28;20446;-48
2022/02/09 11:16:48;;;;;;;15.82;10.25;;;;;;;8.59;100.00;102409.66;5092524;28;20511;-47
2022/02/09 11:19:18;;;;;;;13.35;9.00;;;;;;;8.60;100.00;102400.88;5092569;28;20048;-48
2022/02/09 11:21:50;;;;;;;14.93;9.35;;;;;;;8.51;100.00;102409.03;5092989;28;20051;-47
2022/02/09 11:24:21;;;;;;;16.83;9.52;;;;;;;8.58;100.00;102399.22;5093072;28;20523;-49
2022/02/09 11:26:58;;;;;;;12.70;8.27;;;;;;;8.66;100.00;102412.06;5092610;28;20052;-48
2022/02/09 11:29:38;;;;;;;14.07;9.52;;;;;;;8.67;100.00;102398.94;5092649;28;20044;-44
2022/02/09 11:32:24;;;;;;;14.68;9.45;;;;;;;8.84;100.00;102403.59;5092320;28;20051;-48
2022/02/09 11:35:26;;;;;;;13.13;8.23;;;;;;;8.77;100.00;102404.72;5092492;28;20050;-47
2022/02/09 11:38:12;;;;;;;14.32;8.93;;;;;;;8.81;100.00;102401.09;5092330;28;20051;-46
2022/02/09 11:40:47;;;;;;;11.88;8.30;;;;;;;8.88;100.00;102396.50;5092476;28;20060;-48
2022/02/09 11:43:57;;;;;;;14.57;8.52;;;;;;;8.94;100.00;102397.16;5092166;28;20032;-49
2022/02/09 11:46:45;;;;;;;12.00;7.90;;;;;;;9.02;100.00;102394.25;5089044;28;20060;-45
2022/02/09 12:00:53;;;;;;;11.57;7.75;;;;;;;9.14;100.00;102409.59;5058746;28;20056;-44
2022/02/09 12:10:26;;;;;;;11.90;7.18;;;;;;;9.07;100.00;102402.84;5092254;28;20395;-47
2022/02/09 12:13:03;;;;;;;10.35;6.85;;;;;;;9.08;100.00;102399.31;5089203;28;20044;-47
2022/02/09 12:16:19;;;;;;;13.00;7.03;;;;;;;9.12;100.00;102400.03;5089023;28;20059;-48
2022/02/09 12:19:07;;;;;;;10.13;7.03;;;;;;;9.14;100.00;102388.59;5091963;28;20101;-45
2022/02/09 12:21:50;;;;;;;13.52;7.10;;;;;;;9.08;100.00;102383.56;5088784;28;20044;-46
2022/02/09 12:24:23;;;;;;;10.95;7.32;;;;;;;9.04;100.00;102388.94;5090027;28;20052;-45
2022/02/09 12:26:58;;;;;;;11.38;6.90;;;;;;;9.05;100.00;102386.31;5088139;28;20059;-45
2022/02/09 12:29:30;;;;;;;11.30;7.07;;;;;;;9.12;100.00;102386.91;5090471;28;20158;-43
2022/02/09 12:31:58;;;;;;;11.43;7.03;;;;;;;9.16;100.00;102390.31;5092032;28;20052;-47
2022/02/09 12:34:29;;;;;;;10.85;6.75;;;;;;;9.11;100.00;102383.44;5091220;28;20437;-44
2022/02/09 12:36:57;;;;;;;10.52;7.13;;;;;;;9.11;100.00;102390.47;5089997;28;20044;-49
2022/02/09 12:39:26;;;;;;;12.63;7.57;;;;;;;9.16;100.00;102372.78;5087510;28;20482;-49
2022/02/09 12:42:05;;;;;;;11.68;7.68;;;;;;;9.14;100.00;102379.88;5090265;28;20058;-49
2022/02/09 12:44:33;;;;;;;13.20;7.70;;;;;;;9.10;100.00;102376.47;5091925;28;20040;-49
2022/02/09 12:47:01;;;;;;;13.35;7.47;;;;;;;9.10;100.00;102380.88;5092035;28;20498;-48
2022/02/09 12:49:32;;;;;;;12.10;7.20;;;;;;;9.12;100.00;102368.53;5091795;28;20103;-48
2022/02/09 12:52:00;;;;;;;11.70;7.82;;;;;;;9.07;100.00;102375.75;5091794;28;20093;-45
2022/02/09 12:54:28;;;;;;;11.63;7.65;;;;;;;9.02;100.00;102372.41;5091433;28;20078;-46
2022/02/09 12:56:57;;;;;;;12.18;7.68;;;;;;;9.14;100.00;102379.88;5093479;28;20135;-48
2022/02/09 12:59:27;;;;;;;12.02;7.13;;;;;;;9.25;100.00;102372.47;5092213;28;20052;-46
2022/02/09 13:01:56;;;;;;;12.18;7.32;;;;;;;9.21;100.00;102365.59;5092934;28;20105;-47
2022/02/09 13:04:30;;;;;;;11.68;7.15;;;;;;;9.28;100.00;102369.75;5095443;28;20568;-46
2022/02/09 13:06:59;;;;;;;10.40;7.32;;;;;;;9.35;100.00;102365.13;5095261;28;20051;-49
2022/02/09 13:09:28;;;;;;;11.05;7.05;;;;;;;9.48;100.00;102360.28;5095030;28;20044;-47
2022/02/09 13:11:58;;;;;;;12.32;7.30;;;;;;;9.63;100.00;102354.47;5094245;28;20047;-48
2022/02/09 13:14:31;;;;;;;12.00;6.88;;;;;;;9.78;100.00;102352.19;5091693;28;20126;-48
2022/02/09 13:23:03;;;;;;;11.20;7.05;;;;;;;9.79;100.00;102352.13;5094535;28;20051;-48
2022/02/09 13:25:48;;;;;;;9.80;6.57;;;;;;;9.80;100.00;102350.34;5092748;28;20044;-45
2022/02/09 14:13:31;;;;;;;12.93;9.30;;;;;;;9.46;100.00;102360.34;5109651;28;20529;-50
2022/02/09 14:19:03;;;;;;;12.65;8.93;;;;;;;9.46;100.00;102356.84;5109509;28;20110;-50
2022/02/09 14:54:52;;;;;;;12.73;8.63;;;;;;;9.37;100.00;102339.66;5108466;28;20068;-55
2022/02/09 14:57:25;;;;;;;13.10;8.95;;;;;;;9.35;100.00;102345.88;5109001;28;20372;-56
2022/02/09 15:00:07;;;;;;;;;;;;;;;9.41;100.00;102343.06;5109423;28;20113;-56
2022/02/09 15:02:54;;;;;;;14.80;10.00;;;;;;;9.38;100.00;102353.66;5108759;28;19920;-54
2022/02/09 15:08:17;;;;;;;13.27;9.83;;;;;;;9.36;100.00;102355.47;5092841;28;20068;-56
2022/02/09 15:10:51;;;;;;;15.00;10.32;;;;;;;9.36;100.00;102356.34;5095152;28;20066;-55
2022/02/09 15:13:36;;;;;;;13.65;9.90;;;;;;;9.41;100.00;102354.41;5093361;28;20059;-56
2022/02/09 15:16:14;;;;;;;13.38;9.43;;;;;;;9.40;100.00;102355.31;5090855;28;20059;-55
2022/02/09 15:19:13;;;;;;;14.68;9.18;;;;;;;9.38;100.00;102353.66;5094236;28;20487;-56
2022/02/09 15:24:42;;;;;;;14.25;9.00;;;;;;;9.36;100.00;102353.69;5094336;28;20123;-47
2022/02/09 15:27:16;;;;;;;15.48;9.80;;;;;;;9.37;100.00;102360.69;5092695;28;20051;-46
2022/02/09 15:29:45;;;;;;;15.00;9.57;;;;;;;9.42;100.00;102358.75;5091499;28;20048;-45
2022/02/09 15:32:23;;;;;;;13.95;9.60;;;;;;;9.39;100.00;102355.38;5092529;28;20517;-47
2022/02/09 15:34:56;;;;;;;13.02;8.93;;;;;;;9.38;100.00;102351.91;5094638;28;20052;-47
2022/02/09 15:37:33;;;;;;;13.95;9.13;;;;;;;9.36;100.00;102352.84;5094341;28;20118;-46
2022/02/09 15:40:08;;;;;;;13.55;8.93;;;;;;;9.37;100.00;102354.59;5090360;28;20059;-46
2022/02/09 15:56:32;;;;;;;15.30;10.02;;;;;;;9.44;100.00;102349.03;5093879;28;20052;-47
2022/02/09 15:59:21;;;;;;;14.18;9.57;;;;;;;9.43;100.00;102351.72;5094240;28;20473;-49
2022/02/09 16:24:04;;;;;;;12.55;7.10;;;;;;;9.22;100.00;102330.56;5088127;28;20510;-50
2022/02/09 16:46:07;;;;;;;14.48;9.55;;;;;;;8.85;100.00;102342.38;5089158;28;20059;-45
2022/02/09 16:48:41;;;;;;;15.63;9.23;;;;;;;8.85;100.00;102347.63;5092969;28;20102;-45
2022/02/09 16:51:14;;;;;;;15.68;9.63;;;;;;;8.83;100.00;102341.53;5093181;28;20406;-45
2022/02/09 16:53:56;;;;;;;14.38;10.00;;;;;;;8.77;100.00;102349.63;5091829;28;20499;-56
2022/02/09 17:18:50;;;;;;;19.65;11.95;;;;;;;8.58;100.00;102336.28;5092743;28;20036;-56
2022/02/09 17:21:20;;;;;;;18.90;12.20;;;;;;;8.53;100.00;102333.78;5089095;28;20048;-46
2022/02/09 17:23:49;;;;;;;20.13;11.98;;;;;;;8.58;100.00;102334.50;5088345;28;20118;-47
2022/02/09 17:26:17;;;;;;;20.10;12.65;;;;;;;8.54;100.00;102335.50;5092174;28;20040;-50
2022/02/09 17:28:55;;;;;;;18.30;12.60;;;;;;;8.56;100.00;102332.84;5092554;28;20052;-48
2022/02/09 17:31:29;;;;;;;20.27;11.98;;;;;;;8.51;100.00;102334.75;5089735;28;20051;-48
2022/02/09 17:34:13;;;;;;;18.58;13.10;;;;;;;8.50;100.00;102330.44;5088240;28;20055;-51
2022/02/09 17:53:29;;;;;;;20.83;13.90;;;;;;;8.37;100.00;102327.28;5168477;27;20095;-45
2022/02/09 17:56:06;;;;;;;21.05;13.18;;;;;;;8.36;100.00;102325.59;5171908;27;20050;-45
2022/02/09 17:58:39;;;;;;;19.25;12.25;;;;;;;8.38;100.00;102326.41;5171046;27;20046;-49
2022/02/09 18:01:08;;;;;;;22.13;13.45;;;;;;;8.37;100.00;102316.81;5171463;27;20070;-49
2022/02/09 18:03:36;;;;;;;22.67;13.38;;;;;;;8.37;100.00;102317.69;5171783;27;20377;-48
2022/02/09 18:06:17;;;;;;;21.15;13.70;;;;;;;8.34;100.00;102324.78;5171513;27;20557;-45
2022/02/09 18:08:53;;;;;;;21.35;13.20;;;;;;;8.32;100.00;102330.06;5169349;27;20434;-47
2022/02/09 18:11:37;;;;;;;20.75;12.70;;;;;;;8.36;100.00;102330.84;5167388;27;20046;-45
2022/02/09 18:14:37;;;;;;;21.30;13.27;;;;;;;8.30;100.00;102326.63;5170796;27;20054;-46
2022/02/09 18:31:10;;;;;;;23.02;14.02;;;;;;;8.22;100.00;102315.53;5166858;27;20244;-50
2022/02/09 18:44:56;;;;;;;23.27;13.48;;;;;;;8.16;100.00;102306.13;5156953;27;20509;-44
2022/02/09 19:03:59;;;;;;;25.20;14.98;;;;;;;8.23;100.00;102294.50;5153093;27;20054;-48
2022/02/09 19:06:42;;;;;;;24.15;15.20;;;;;;;8.22;100.00;102291.94;5152446;27;20042;-47
2022/02/09 19:15:02;;;;;;;26.42;15.73;;;;;;;8.19;100.00;102287.66;5108011;27;20055;-45
2022/02/09 19:17:43;;;;;;;25.98;14.82;;;;;;;8.20;100.00;102283.28;5156541;27;20046;-50
2022/02/09 19:20:25;;;;;;;29.17;16.40;;;;;;;8.13;100.00;102286.09;5156274;27;20046;-49
2022/02/09 19:31:25;;;;;;;28.83;18.02;;;;;;;8.12;100.00;102273.88;5106475;27;20508;-47
2022/02/09 19:45:31;;;;;;;26.17;14.65;;;;;;;7.98;100.00;102267.41;5154040;27;20122;-47
2022/02/09 19:48:03;;;;;;;25.00;14.45;;;;;;;7.98;100.00;102270.03;5155794;27;20481;-47
2022/02/09 19:50:49;;;;;;;25.90;15.18;;;;;;;8.01;100.00;102272.53;5156051;27;20485;-47
2022/02/09 19:53:37;;;;;;;27.10;14.57;;;;;;;8.05;100.00;102263.69;5153354;27;20777;-51
2022/02/09 19:56:10;;;;;;;25.20;14.05;;;;;;;8.04;100.00;102270.66;5150974;27;20072;-49
2022/02/09 19:58:42;;;;;;;30.48;15.02;;;;;;;8.05;100.00;102263.69;5155669;27;20038;-46
2022/02/09 20:01:17;;;;;;;28.27;15.05;;;;;;;8.06;100.00;102262.78;5153086;27;20043;-50
2022/02/09 20:03:46;;;;;;;27.35;14.80;;;;;;;8.06;100.00;102265.41;5152386;27;20048;-48
2022/02/09 20:06:16;;;;;;;24.25;13.65;;;;;;;8.09;100.00;102265.28;5154511;27;20099;-47
2022/02/09 20:08:44;;;;;;;21.83;12.60;;;;;;;8.05;100.00;102268.91;5151881;27;20046;-47
2022/02/09 20:11:15;;;;;;;20.98;11.20;;;;;;;8.05;100.00;102266.28;5151499;27;20056;-48
2022/02/09 20:13:43;;;;;;;23.08;12.02;;;;;;;8.06;100.00;102266.25;5154949;27;20073;-45
2022/02/09 20:16:11;;;;;;;23.50;11.77;;;;;;;8.06;100.00;102265.41;5154978;27;20046;-44
2022/02/09 20:18:40;;;;;;;21.60;12.27;;;;;;;8.01;100.00;102267.31;5154972;27;20043;-50
2022/02/09 20:21:08;;;;;;;22.05;12.18;;;;;;;8.04;100.00;102257.56;5155121;27;20534;-45
2022/02/09 20:23:37;;;;;;;22.08;11.75;;;;;;;8.06;100.00;102257.53;5155188;27;20374;-45
2022/02/09 20:26:08;;;;;;;19.05;10.93;;;;;;;8.07;100.00;102261.84;5155136;27;20043;-46
2022/02/09 20:28:40;;;;;;;22.65;12.68;;;;;;;8.08;100.00;102256.56;5153383;27;20046;-49
2022/02/09 20:31:13;;;;;;;21.75;11.98;;;;;;;8.10;100.00;102251.28;5150700;27;20050;-47
2022/02/09 20:33:46;;;;;;;23.70;12.75;;;;;;;8.08;100.00;102261.78;5154527;27;20501;-49
2022/02/09 20:36:17;;;;;;;21.02;12.25;;;;;;;8.07;100.00;102256.59;5150685;27;20138;-47
2022/02/09 20:38:50;;;;;;;21.20;12.60;;;;;;;8.08;100.00;102251.31;5151693;27;20055;-48
2022/02/09 20:41:20;;;;;;;21.92;13.02;;;;;;;8.04;100.00;102252.31;5140054;27;20058;-48
2022/02/09 20:44:00;;;;;;;23.17;12.75;;;;;;;8.07;100.00;102244.38;5133935;27;20035;-50
2022/02/09 20:46:30;;;;;;;23.35;13.85;;;;;;;8.03;100.00;102239.28;5136051;27;20046;-48
2022/02/09 20:48:58;;;;;;;26.52;13.55;;;;;;;8.09;100.00;102244.31;5153361;27;20426;-49
2022/02/09 20:51:26;;;;;;;23.58;12.98;;;;;;;8.06;100.00;102239.19;5148960;27;20055;-47
2022/02/09 20:53:56;;;;;;;23.75;13.70;;;;;;;8.08;100.00;102238.22;5153190;27;20580;-51
2022/02/09 20:56:24;;;;;;;24.13;13.23;;;;;;;8.05;100.00;102246.19;5147665;27;20099;-49
2022/02/09 20:58:59;;;;;;;23.42;13.70;;;;;;;8.04;100.00;102238.38;5149978;27;20054;-46